Aktuální počasí v Česku a ve světě - METAR

Seznam meteostanic umístěných nejčasteji na letišti v ČR a ve světě

Vyhledat místa podle abecedy:
A B C D E F G H I J K L M N O P Q R S T U V W X Y Z

Filtrovat:

ID stanice:
a/nebo
Název místa (fulltext):
 
Místo (ID)Naposledy načteno 
Antwerp (EBAW) 29.07.2021 08:50 UTC Zobrazit METAR
EBAW 290850Z 24012KT 210V280 9999 SCT020 18/11 Q1012 NOSIG
Apia (NSFA) 29.07.2021 09:00 UTC Zobrazit METAR
NSFA 290900Z 19003KT 9999 FEW024 BKN290 23/22 Q1015
Aruba I (TNCA) 29.07.2021 09:00 UTC Zobrazit METAR
TNCA 290900Z 10017KT 9999 FEW018 27/24 Q1011 NOSIG
Ascension I. (FHAW) 28.07.2021 19:50 UTC Zobrazit METAR
FHAW 281950Z 13013KT 9999 BKN020 25/20 Q1015 NOSIG RMK WHT WHT
Ashgabat (UTAA) 29.07.2021 09:00 UTC Zobrazit METAR
UTAA 290900Z 30018KT 9999 SCT049 BKN099 33/16 Q1008 R88/CLRD70 TEMPO VRB32KT 1500 -TSRA DS VV005
Asmara (HHAS) 03.02.2015 17:00 UTC Zobrazit METAR
HHAS 031700Z 27004KT CAVOK 15/06 Q1028 NOSIG
Astana (UACC) Zatím nenačteno  
Astrakhan (URWA) Zatím nenačteno  
Asuncion (SGAS) 29.07.2021 09:00 UTC Zobrazit METAR
SGAS 290900Z 00000KT CAVOK 02/00 Q1031
Athens (LGAV) 29.07.2021 08:50 UTC Zobrazit METAR
LGAV 290850Z 04016KT CAVOK 35/11 Q1013 NOSIG
Baghdad (ORBS) 06.06.2012 04:00 UTC  
Bagram (KQSA) 11.05.2016 15:58 UTC Zobrazit METAR
KQSA 111558Z VRB06KT 9999 BKN140 21/09 A3000 RMK AO2A SLP070 T02080091 $
Bahrain (OBBI) 29.07.2021 09:00 UTC Zobrazit METAR
OBBI 290900Z 32021KT CAVOK 39/23 Q0994 NOSIG
Baku (UBBB) 29.07.2021 09:00 UTC Zobrazit METAR
UBBB 290900Z 34014KT 9999 FEW027 29/19 Q1014 R88/CLRD// NOSIG
Bamako (GABS) 29.07.2021 08:00 UTC Zobrazit METAR
GABS 290800Z 32004KT 280V360 9999 -RA FEW016 24/23 Q1014 NOSIG
Bandar Seri Begawan (WBSB) 29.07.2021 07:00 UTC Zobrazit METAR
WBSB 290700Z 25006KT 9999 FEW016 BKN300 33/26 Q1007 NOSIG
Bangkok (VTBD) 29.07.2021 08:00 UTC Zobrazit METAR
VTBD 290800Z 27010KT 9999 SCT020 SCT040 34/24 Q1004 NOSIG
Bangui (FEFF) 29.07.2021 09:00 UTC Zobrazit METAR
FEFF 290900Z 00000KT 8000 -RA SCT010 24/22 Q1013 TEMPO BKN013
Banja Luka (LQBK) 29.07.2021 09:00 UTC Zobrazit METAR
LQBK 290900Z 02005KT 330V120 CAVOK 28/18 Q1015 NOSIG
Banjul (GBYD) 29.07.2021 08:00 UTC Zobrazit METAR
GBYD 290800Z 18008KT 9999 BKN010 SCT100 25/25 Q1012
Barbados (TBPB) 29.07.2021 09:00 UTC Zobrazit METAR
TBPB 290900Z 09016KT 9999 SCT018 SCT038 27/23 Q1016 NOSIG
Barcelona (LEBL) 29.07.2021 09:00 UTC Zobrazit METAR
LEBL 290900Z 19005KT 130V240 CAVOK 26/18 Q1016 NOSIG
Bari (LIBD) 29.07.2021 08:50 UTC Zobrazit METAR
LIBD 290850Z 31004KT 250V040 CAVOK 37/10 Q1013
Basle-Mulhouse (LFSB) 29.07.2021 09:00 UTC Zobrazit METAR
LFSB 290900Z 28007KT 230V320 9999 SCT036 BKN050 21/13 Q1017 NOSIG
Basse-Terre (TFFB) Zatím nenačteno  
Basseterre (TKPK) 28.07.2021 22:00 UTC Zobrazit METAR
TKPK 282200Z 09010KT 9999 VCSH SCT018 28/23 Q1015
Beijing (ZBAA) Zatím nenačteno  
Beirut (OLBA) 29.07.2021 09:00 UTC Zobrazit METAR
OLBA 290900Z 21016KT CAVOK 32/24 Q1005 NOSIG
Belfast (EGAA) 29.07.2021 08:50 UTC Zobrazit METAR
EGAA 290850Z AUTO 30010KT 3300 DZ FEW003 SCT017 14/13 Q1005 RERA REDZ
Belgrade (LYBE) 29.07.2021 09:00 UTC Zobrazit METAR
LYBE 290900Z 34006KT 290V040 CAVOK 29/18 Q1015 NOSIG
Belize City (MZBZ) 29.07.2021 01:00 UTC Zobrazit METAR
MZBZ 290100Z 09008KT 9999 BKN020 BKN040 28/25 A2991 Q1013 NOSIG
Bergen (ENBR) 29.07.2021 08:50 UTC Zobrazit METAR
ENBR 290850Z 21009KT 9999 VCSH FEW010 SCT022 BKN050 17/15 Q0997 TEMPO SHRA BKN010 RMK WIND 1200FT 21010KT
Berlin (EDDT) 09.11.2020 06:50 UTC Zobrazit METAR
EDDT 090650Z 09006KT 050V120 3000 BR OVC003 06/05 Q1027
Bermuda Is (TXKF) 29.07.2021 07:55 UTC Zobrazit METAR
TXKF 290755Z 23011KT 9999 SCT014 27/24 Q1017
Bern (LSZB) 29.07.2021 08:50 UTC Zobrazit METAR
LSZB 290850Z VRB02KT 9999 SCT028 22/15 Q1017 NOSIG
Billund (EKBI) 29.07.2021 02:50 UTC Zobrazit METAR
EKBI 290250Z AUTO 17008KT 9999 FEW033/// FEW044/// BKN076/// BKN110/// 14/13 Q1002
Birmingham (EGBB) 29.07.2021 08:50 UTC Zobrazit METAR
EGBB 290850Z 25010G20KT 210V290 9999 SCT030 16/10 Q1008
Bishkek (UAFM) Zatím nenačteno  
Bissau (GGOV) 28.07.2021 20:00 UTC Zobrazit METAR
GGOV 282000Z 26004KT 200V310 9999 SCT014 26/24 Q1012 NOSIG
Bogota (SKBO) 29.07.2021 09:00 UTC Zobrazit METAR
SKBO 290900Z VRB02KT 9999 FEW017 SCT070 12/10 Q1026 NOSIG RMK A3032
Bologna (LIPE) 29.07.2021 08:50 UTC Zobrazit METAR
LIPE 290850Z 28005KT 240V320 CAVOK 28/19 Q1014
Bordeaux (LFBD) 29.07.2021 09:00 UTC Zobrazit METAR
LFBD 290900Z AUTO 11003KT 060V140 9999 OVC043 20/15 Q1017 NOSIG
Bornholm (EKRN) 29.07.2021 08:50 UTC Zobrazit METAR
EKRN 290850Z AUTO 22014G24KT 200V260 9999 FEW033/// SCT100/// BKN120/// 21/14 Q1006
Brasilia (SBBR) 29.07.2021 09:00 UTC Zobrazit METAR
SBBR 290900Z 22004KT 170V250 CAVOK 11/01 Q1023
Bratislava (LZIB) 29.07.2021 09:00 UTC Zobrazit METAR
LZIB 290900Z 30007KT 260V340 9999 FEW035 25/15 Q1015 NOSIG
Brazzaville (FCBB) 29.07.2021 09:00 UTC Zobrazit METAR
FCBB 290900Z 25005KT 220V290 7000 FEW015 26/19 Q1016 NOSIG
Bremen (EDDW) 29.07.2021 08:50 UTC Zobrazit METAR
EDDW 290850Z 23017KT 9999 SCT035 19/11 Q1008 TEMPO 24020G30KT
Brest (UMBB) Zatím nenačteno  
Brest (LFRB) 29.07.2021 09:00 UTC Zobrazit METAR
LFRB 290900Z AUTO 24008KT 200V270 9999 SCT023 BKN029 BKN110 17/12 Q1015 NOSIG
Brno (LKTB) 29.07.2021 09:00 UTC Zobrazit METAR
LKTB 290900Z 22005KT 160V260 9999 SCT037 24/14 Q1015 NOSIG
Předchozí 1 2 3 4 ... 9 Další
Reklama

Reklama


Newslettter

Počasí na Váš email

Emaily jsou bez reklamy a bez spamu



Odhlásit newsletter



Kontaktujte nás

Kontaktujte Slunečno.cz

Kontaktujte provozovatele Slunecno.cz

Další české internetové stránky (nejen) o počasí najdete v katalogu TOPlist - weby o počasí nebo vyhledejte na internetu, co jste tu na Počasí Slunečno Slunečnu zatím nenašli:
Přidat mezzi oblíbené stránkyPřidat Slunečno.cz do oblíbených | Nastavit jako HOMEPAGENastavit Slunečno.cz jako HOMEPAGE

Posunout stránku nahoru Posunout stránku nahoru Posunout stránku nahoru
Reklama